sensor_id;sensor_type;location;lat;lon;timestamp;temperature;humidity
23259;DHT22;11798;51.528;7.240;2022-12-29T00:01:45;9.80;99.90
23259;DHT22;11798;51.528;7.240;2022-12-29T00:04:12;9.70;99.90
23259;DHT22;11798;51.528;7.240;2022-12-29T00:06:39;9.80;99.90
23259;DHT22;11798;51.528;7.240;2022-12-29T00:09:04;9.70;99.90
23259;DHT22;11798;51.528;7.240;2022-12-29T00:11:30;9.70;99.90
23259;DHT22;11798;51.528;7.240;2022-12-29T00:13:56;9.80;99.90
23259;DHT22;11798;51.528;7.240;2022-12-29T00:16:42;9.80;99.90
23259;DHT22;11798;51.528;7.240;2022-12-29T00:19:08;9.80;99.90
23259;DHT22;11798;51.528;7.240;2022-12-29T00:21:54;9.80;99.90
23259;DHT22;11798;51.528;7.240;2022-12-29T00:24:39;9.80;99.90
23259;DHT22;11798;51.528;7.240;2022-12-29T00:27:22;9.80;99.90
23259;DHT22;11798;51.528;7.240;2022-12-29T00:30:14;9.80;99.90
23259;DHT22;11798;51.528;7.240;2022-12-29T00:33:00;9.80;99.90
23259;DHT22;11798;51.528;7.240;2022-12-29T00:35:51;9.80;99.90
23259;DHT22;11798;51.528;7.240;2022-12-29T00:38:18;9.70;99.90
23259;DHT22;11798;51.528;7.240;2022-12-29T00:41:02;9.70;99.90
23259;DHT22;11798;51.528;7.240;2022-12-29T00:43:46;9.70;99.90
23259;DHT22;11798;51.528;7.240;2022-12-29T00:46:33;9.80;99.90
23259;DHT22;11798;51.528;7.240;2022-12-29T00:49:00;9.80;99.90
23259;DHT22;11798;51.528;7.240;2022-12-29T00:51:45;9.70;99.90
23259;DHT22;11798;51.528;7.240;2022-12-29T00:54:11;9.70;99.90
23259;DHT22;11798;51.528;7.240;2022-12-29T00:56:37;9.70;99.90
23259;DHT22;11798;51.528;7.240;2022-12-29T00:59:04;9.80;99.90
23259;DHT22;11798;51.528;7.240;2022-12-29T01:01:31;9.80;99.90
23259;DHT22;11798;51.528;7.240;2022-12-29T01:03:57;9.80;99.90
23259;DHT22;11798;51.528;7.240;2022-12-29T01:06:23;9.80;99.90
23259;DHT22;11798;51.528;7.240;2022-12-29T01:08:49;9.80;99.90
23259;DHT22;11798;51.528;7.240;2022-12-29T01:11:38;9.80;99.90
23259;DHT22;11798;51.528;7.240;2022-12-29T01:14:04;9.80;99.90
23259;DHT22;11798;51.528;7.240;2022-12-29T01:16:31;9.80;99.90
23259;DHT22;11798;51.528;7.240;2022-12-29T01:18:57;9.80;99.90
23259;DHT22;11798;51.528;7.240;2022-12-29T01:21:23;9.80;99.90
23259;DHT22;11798;51.528;7.240;2022-12-29T01:23:49;9.70;99.90
23259;DHT22;11798;51.528;7.240;2022-12-29T01:26:16;9.80;99.90
23259;DHT22;11798;51.528;7.240;2022-12-29T01:28:42;9.80;99.90
23259;DHT22;11798;51.528;7.240;2022-12-29T01:31:08;9.80;99.90
23259;DHT22;11798;51.528;7.240;2022-12-29T01:33:35;9.80;99.90
23259;DHT22;11798;51.528;7.240;2022-12-29T01:36:05;9.90;99.90
23259;DHT22;11798;51.528;7.240;2022-12-29T01:38:32;9.90;99.90
23259;DHT22;11798;51.528;7.240;2022-12-29T01:40:57;9.90;99.90
23259;DHT22;11798;51.528;7.240;2022-12-29T01:48:52;10.00;99.90
23259;DHT22;11798;51.528;7.240;2022-12-29T01:51:22;10.00;99.90
23259;DHT22;11798;51.528;7.240;2022-12-29T01:53:48;10.00;99.90
23259;DHT22;11798;51.528;7.240;2022-12-29T01:56:17;10.10;99.90
23259;DHT22;11798;51.528;7.240;2022-12-29T01:58:48;10.20;99.90
23259;DHT22;11798;51.528;7.240;2022-12-29T02:01:15;10.10;99.90
23259;DHT22;11798;51.528;7.240;2022-12-29T02:03:43;10.10;99.90
23259;DHT22;11798;51.528;7.240;2022-12-29T02:06:16;10.20;99.90
23259;DHT22;11798;51.528;7.240;2022-12-29T02:08:45;10.20;99.90
23259;DHT22;11798;51.528;7.240;2022-12-29T02:11:12;10.20;99.90
23259;DHT22;11798;51.528;7.240;2022-12-29T02:13:38;10.30;99.90
23259;DHT22;11798;51.528;7.240;2022-12-29T02:16:31;10.30;99.90
23259;DHT22;11798;51.528;7.240;2022-12-29T02:36:22;10.30;99.90
23259;DHT22;11798;51.528;7.240;2022-12-29T02:42:21;10.30;99.90
23259;DHT22;11798;51.528;7.240;2022-12-29T02:50:06;10.30;99.90
23259;DHT22;11798;51.528;7.240;2022-12-29T02:52:41;10.30;99.90
23259;DHT22;11798;51.528;7.240;2022-12-29T02:55:11;10.40;99.90
23259;DHT22;11798;51.528;7.240;2022-12-29T02:57:37;10.40;99.90
23259;DHT22;11798;51.528;7.240;2022-12-29T03:00:14;10.40;99.90
23259;DHT22;11798;51.528;7.240;2022-12-29T03:11:04;10.50;99.90
23259;DHT22;11798;51.528;7.240;2022-12-29T03:13:43;10.50;99.90
23259;DHT22;11798;51.528;7.240;2022-12-29T03:16:44;10.60;99.90
23259;DHT22;11798;51.528;7.240;2022-12-29T03:19:15;10.60;99.90
23259;DHT22;11798;51.528;7.240;2022-12-29T03:21:52;10.60;99.90
23259;DHT22;11798;51.528;7.240;2022-12-29T03:24:44;10.50;99.90
23259;DHT22;11798;51.528;7.240;2022-12-29T03:27:15;10.50;99.90
23259;DHT22;11798;51.528;7.240;2022-12-29T03:29:47;10.50;99.90
23259;DHT22;11798;51.528;7.240;2022-12-29T03:32:18;10.50;99.90
23259;DHT22;11798;51.528;7.240;2022-12-29T03:34:44;10.60;99.90
23259;DHT22;11798;51.528;7.240;2022-12-29T03:37:13;10.60;99.90
23259;DHT22;11798;51.528;7.240;2022-12-29T03:39:41;10.50;99.90
23259;DHT22;11798;51.528;7.240;2022-12-29T03:42:14;10.60;99.90
23259;DHT22;11798;51.528;7.240;2022-12-29T03:44:42;10.60;99.90
23259;DHT22;11798;51.528;7.240;2022-12-29T03:47:10;10.60;99.90
23259;DHT22;11798;51.528;7.240;2022-12-29T03:49:36;10.60;99.90
23259;DHT22;11798;51.528;7.240;2022-12-29T03:52:02;10.60;99.90
23259;DHT22;11798;51.528;7.240;2022-12-29T03:54:27;10.60;99.90
23259;DHT22;11798;51.528;7.240;2022-12-29T03:56:53;10.60;99.90
23259;DHT22;11798;51.528;7.240;2022-12-29T03:59:19;10.60;99.90
23259;DHT22;11798;51.528;7.240;2022-12-29T04:01:44;10.50;99.90
23259;DHT22;11798;51.528;7.240;2022-12-29T04:04:10;10.50;99.90
23259;DHT22;11798;51.528;7.240;2022-12-29T04:06:35;10.50;99.90
23259;DHT22;11798;51.528;7.240;2022-12-29T04:09:01;10.50;99.90
23259;DHT22;11798;51.528;7.240;2022-12-29T04:11:26;10.50;99.90
23259;DHT22;11798;51.528;7.240;2022-12-29T04:13:52;10.40;99.90
23259;DHT22;11798;51.528;7.240;2022-12-29T04:16:18;10.40;99.90
23259;DHT22;11798;51.528;7.240;2022-12-29T04:18:43;10.40;99.90
23259;DHT22;11798;51.528;7.240;2022-12-29T04:21:09;10.40;99.90
23259;DHT22;11798;51.528;7.240;2022-12-29T04:23:37;10.40;99.90
23259;DHT22;11798;51.528;7.240;2022-12-29T04:26:04;10.40;99.90
23259;DHT22;11798;51.528;7.240;2022-12-29T04:28:29;10.30;99.90
23259;DHT22;11798;51.528;7.240;2022-12-29T04:30:55;10.30;99.90
23259;DHT22;11798;51.528;7.240;2022-12-29T04:33:21;10.30;99.90
23259;DHT22;11798;51.528;7.240;2022-12-29T04:35:47;10.30;99.90
23259;DHT22;11798;51.528;7.240;2022-12-29T04:38:13;10.30;99.90
23259;DHT22;11798;51.528;7.240;2022-12-29T04:40:41;10.30;99.90
23259;DHT22;11798;51.528;7.240;2022-12-29T04:43:08;10.30;99.90
23259;DHT22;11798;51.528;7.240;2022-12-29T04:45:34;10.40;99.90
23259;DHT22;11798;51.528;7.240;2022-12-29T04:47:59;10.40;99.90
23259;DHT22;11798;51.528;7.240;2022-12-29T04:50:25;10.40;99.90
23259;DHT22;11798;51.528;7.240;2022-12-29T04:52:50;10.40;99.90
23259;DHT22;11798;51.528;7.240;2022-12-29T04:55:16;10.40;99.90
23259;DHT22;11798;51.528;7.240;2022-12-29T04:57:42;10.50;99.90
23259;DHT22;11798;51.528;7.240;2022-12-29T05:00:08;10.50;99.90
23259;DHT22;11798;51.528;7.240;2022-12-29T05:02:37;10.60;99.90
23259;DHT22;11798;51.528;7.240;2022-12-29T05:05:04;10.60;99.90
23259;DHT22;11798;51.528;7.240;2022-12-29T05:07:29;10.60;99.90
23259;DHT22;11798;51.528;7.240;2022-12-29T05:09:55;10.70;99.90
23259;DHT22;11798;51.528;7.240;2022-12-29T05:12:21;10.70;99.90
23259;DHT22;11798;51.528;7.240;2022-12-29T05:14:46;10.80;99.90
23259;DHT22;11798;51.528;7.240;2022-12-29T05:17:12;10.80;99.90
23259;DHT22;11798;51.528;7.240;2022-12-29T05:19:37;10.80;99.90
23259;DHT22;11798;51.528;7.240;2022-12-29T05:22:03;10.90;99.90
23259;DHT22;11798;51.528;7.240;2022-12-29T05:24:29;10.90;99.90
23259;DHT22;11798;51.528;7.240;2022-12-29T05:26:55;10.90;99.90
23259;DHT22;11798;51.528;7.240;2022-12-29T05:29:20;10.90;99.90
23259;DHT22;11798;51.528;7.240;2022-12-29T05:31:46;10.90;99.90
23259;DHT22;11798;51.528;7.240;2022-12-29T05:34:12;10.90;99.90
23259;DHT22;11798;51.528;7.240;2022-12-29T05:36:38;11.00;99.90
23259;DHT22;11798;51.528;7.240;2022-12-29T05:39:04;11.00;99.90
23259;DHT22;11798;51.528;7.240;2022-12-29T05:41:30;11.00;99.90
23259;DHT22;11798;51.528;7.240;2022-12-29T05:43:56;11.00;99.90
23259;DHT22;11798;51.528;7.240;2022-12-29T05:46:21;11.00;99.90
23259;DHT22;11798;51.528;7.240;2022-12-29T05:48:47;11.00;99.90
23259;DHT22;11798;51.528;7.240;2022-12-29T05:51:12;11.00;99.90
23259;DHT22;11798;51.528;7.240;2022-12-29T05:53:38;11.00;99.90
23259;DHT22;11798;51.528;7.240;2022-12-29T05:56:04;11.00;99.90
23259;DHT22;11798;51.528;7.240;2022-12-29T05:58:29;11.00;99.90
23259;DHT22;11798;51.528;7.240;2022-12-29T06:00:55;11.00;99.90
23259;DHT22;11798;51.528;7.240;2022-12-29T06:03:20;10.80;99.90
23259;DHT22;11798;51.528;7.240;2022-12-29T06:05:46;10.70;99.90
23259;DHT22;11798;51.528;7.240;2022-12-29T06:08:12;10.60;99.90
23259;DHT22;11798;51.528;7.240;2022-12-29T06:10:38;10.60;99.90
23259;DHT22;11798;51.528;7.240;2022-12-29T06:13:03;10.50;99.90
23259;DHT22;11798;51.528;7.240;2022-12-29T06:15:31;10.50;99.90
23259;DHT22;11798;51.528;7.240;2022-12-29T06:17:57;10.50;99.90
23259;DHT22;11798;51.528;7.240;2022-12-29T06:20:22;10.50;99.90
23259;DHT22;11798;51.528;7.240;2022-12-29T06:22:48;10.50;99.90
23259;DHT22;11798;51.528;7.240;2022-12-29T06:25:14;10.50;99.90
23259;DHT22;11798;51.528;7.240;2022-12-29T06:27:40;10.50;99.90
23259;DHT22;11798;51.528;7.240;2022-12-29T06:30:06;10.50;99.90
23259;DHT22;11798;51.528;7.240;2022-12-29T06:32:32;10.50;99.90
23259;DHT22;11798;51.528;7.240;2022-12-29T06:34:57;10.40;99.90
23259;DHT22;11798;51.528;7.240;2022-12-29T06:37:23;10.40;99.90
23259;DHT22;11798;51.528;7.240;2022-12-29T06:39:48;10.40;99.90
23259;DHT22;11798;51.528;7.240;2022-12-29T06:42:14;10.30;99.90
23259;DHT22;11798;51.528;7.240;2022-12-29T06:44:40;10.30;99.90
23259;DHT22;11798;51.528;7.240;2022-12-29T06:47:06;10.30;99.90
23259;DHT22;11798;51.528;7.240;2022-12-29T06:49:31;10.30;99.90
23259;DHT22;11798;51.528;7.240;2022-12-29T06:51:57;10.30;99.90
23259;DHT22;11798;51.528;7.240;2022-12-29T06:54:25;10.30;99.90
23259;DHT22;11798;51.528;7.240;2022-12-29T06:56:50;10.40;99.90
23259;DHT22;11798;51.528;7.240;2022-12-29T06:59:16;10.40;99.90
23259;DHT22;11798;51.528;7.240;2022-12-29T07:01:41;10.40;99.90
23259;DHT22;11798;51.528;7.240;2022-12-29T07:04:07;10.40;99.90
23259;DHT22;11798;51.528;7.240;2022-12-29T07:06:32;10.50;99.90
23259;DHT22;11798;51.528;7.240;2022-12-29T07:08:58;10.50;99.90
23259;DHT22;11798;51.528;7.240;2022-12-29T07:11:24;10.50;99.90
23259;DHT22;11798;51.528;7.240;2022-12-29T07:13:49;10.40;99.90
23259;DHT22;11798;51.528;7.240;2022-12-29T07:16:15;10.40;99.90
23259;DHT22;11798;51.528;7.240;2022-12-29T07:18:41;10.40;99.90
23259;DHT22;11798;51.528;7.240;2022-12-29T07:21:06;10.50;99.90
23259;DHT22;11798;51.528;7.240;2022-12-29T07:23:32;10.50;99.90
23259;DHT22;11798;51.528;7.240;2022-12-29T07:26:08;10.40;99.90
23259;DHT22;11798;51.528;7.240;2022-12-29T07:28:35;10.40;99.90
23259;DHT22;11798;51.528;7.240;2022-12-29T07:31:01;10.40;99.90
23259;DHT22;11798;51.528;7.240;2022-12-29T07:33:31;10.50;99.90
23259;DHT22;11798;51.528;7.240;2022-12-29T07:35:57;10.50;99.90
23259;DHT22;11798;51.528;7.240;2022-12-29T07:38:23;10.60;99.90
23259;DHT22;11798;51.528;7.240;2022-12-29T07:40:49;10.60;99.90
23259;DHT22;11798;51.528;7.240;2022-12-29T07:43:14;10.60;99.90
23259;DHT22;11798;51.528;7.240;2022-12-29T07:45:40;10.60;99.90
23259;DHT22;11798;51.528;7.240;2022-12-29T07:48:06;10.60;99.90
23259;DHT22;11798;51.528;7.240;2022-12-29T07:50:35;10.50;99.90
23259;DHT22;11798;51.528;7.240;2022-12-29T07:53:01;10.50;99.90
23259;DHT22;11798;51.528;7.240;2022-12-29T07:55:27;10.50;99.90
23259;DHT22;11798;51.528;7.240;2022-12-29T07:57:54;10.50;99.90
23259;DHT22;11798;51.528;7.240;2022-12-29T08:00:20;10.50;99.90
23259;DHT22;11798;51.528;7.240;2022-12-29T08:02:45;10.50;99.90
23259;DHT22;11798;51.528;7.240;2022-12-29T08:05:11;10.50;99.90
23259;DHT22;11798;51.528;7.240;2022-12-29T08:07:37;10.50;99.90
23259;DHT22;11798;51.528;7.240;2022-12-29T08:10:02;10.40;99.90
23259;DHT22;11798;51.528;7.240;2022-12-29T08:12:28;10.40;99.90
23259;DHT22;11798;51.528;7.240;2022-12-29T08:14:54;10.40;99.90
23259;DHT22;11798;51.528;7.240;2022-12-29T08:17:19;10.40;99.90
23259;DHT22;11798;51.528;7.240;2022-12-29T08:19:45;10.40;99.90
23259;DHT22;11798;51.528;7.240;2022-12-29T08:22:11;10.40;99.90
23259;DHT22;11798;51.528;7.240;2022-12-29T08:24:36;10.50;99.90
23259;DHT22;11798;51.528;7.240;2022-12-29T08:27:02;10.40;99.90
23259;DHT22;11798;51.528;7.240;2022-12-29T08:29:27;10.40;99.90
23259;DHT22;11798;51.528;7.240;2022-12-29T08:31:53;10.40;99.90
23259;DHT22;11798;51.528;7.240;2022-12-29T08:34:18;10.40;99.90
23259;DHT22;11798;51.528;7.240;2022-12-29T08:36:44;10.50;99.90
23259;DHT22;11798;51.528;7.240;2022-12-29T08:39:10;10.50;99.90
23259;DHT22;11798;51.528;7.240;2022-12-29T08:41:35;10.50;99.90
23259;DHT22;11798;51.528;7.240;2022-12-29T08:44:01;10.60;99.90
23259;DHT22;11798;51.528;7.240;2022-12-29T08:46:26;10.60;99.90
23259;DHT22;11798;51.528;7.240;2022-12-29T08:48:53;10.50;99.90
23259;DHT22;11798;51.528;7.240;2022-12-29T08:51:18;10.50;99.90
23259;DHT22;11798;51.528;7.240;2022-12-29T08:53:44;10.50;99.90
23259;DHT22;11798;51.528;7.240;2022-12-29T08:56:10;10.50;99.90
23259;DHT22;11798;51.528;7.240;2022-12-29T08:58:36;10.50;99.90
23259;DHT22;11798;51.528;7.240;2022-12-29T09:01:02;10.50;99.90
23259;DHT22;11798;51.528;7.240;2022-12-29T09:03:28;10.50;99.90
23259;DHT22;11798;51.528;7.240;2022-12-29T09:05:54;10.50;99.90
23259;DHT22;11798;51.528;7.240;2022-12-29T09:08:21;10.40;99.90
23259;DHT22;11798;51.528;7.240;2022-12-29T09:10:47;10.40;99.90
23259;DHT22;11798;51.528;7.240;2022-12-29T09:13:14;10.40;99.90
23259;DHT22;11798;51.528;7.240;2022-12-29T09:15:40;10.30;99.90
23259;DHT22;11798;51.528;7.240;2022-12-29T09:18:08;10.30;99.90
23259;DHT22;11798;51.528;7.240;2022-12-29T09:20:34;10.30;99.90
23259;DHT22;11798;51.528;7.240;2022-12-29T09:23:00;10.30;99.90
23259;DHT22;11798;51.528;7.240;2022-12-29T09:25:26;10.30;99.90
23259;DHT22;11798;51.528;7.240;2022-12-29T09:27:52;10.30;99.90
23259;DHT22;11798;51.528;7.240;2022-12-29T09:30:20;10.30;99.90
23259;DHT22;11798;51.528;7.240;2022-12-29T09:32:46;10.30;99.90
23259;DHT22;11798;51.528;7.240;2022-12-29T09:35:13;10.30;99.90
23259;DHT22;11798;51.528;7.240;2022-12-29T09:37:39;10.30;99.90
23259;DHT22;11798;51.528;7.240;2022-12-29T09:40:06;10.40;99.90
23259;DHT22;11798;51.528;7.240;2022-12-29T09:42:52;10.50;99.90
23259;DHT22;11798;51.528;7.240;2022-12-29T09:45:40;10.50;99.90
23259;DHT22;11798;51.528;7.240;2022-12-29T09:48:14;10.50;99.90
23259;DHT22;11798;51.528;7.240;2022-12-29T09:50:44;10.50;99.90
23259;DHT22;11798;51.528;7.240;2022-12-29T09:53:27;10.50;99.90
23259;DHT22;11798;51.528;7.240;2022-12-29T09:55:57;10.50;99.90
23259;DHT22;11798;51.528;7.240;2022-12-29T09:58:32;10.50;99.90
23259;DHT22;11798;51.528;7.240;2022-12-29T10:01:26;10.50;99.90
23259;DHT22;11798;51.528;7.240;2022-12-29T10:03:54;10.50;99.90
23259;DHT22;11798;51.528;7.240;2022-12-29T10:06:25;10.50;99.90
23259;DHT22;11798;51.528;7.240;2022-12-29T10:25:41;10.60;99.90
23259;DHT22;11798;51.528;7.240;2022-12-29T10:28:24;10.60;99.90
23259;DHT22;11798;51.528;7.240;2022-12-29T10:30:55;10.60;99.90
23259;DHT22;11798;51.528;7.240;2022-12-29T10:33:29;10.60;99.90
23259;DHT22;11798;51.528;7.240;2022-12-29T10:35:56;10.60;99.90
23259;DHT22;11798;51.528;7.240;2022-12-29T10:41:22;10.70;99.90
23259;DHT22;11798;51.528;7.240;2022-12-29T10:43:50;10.80;99.90
23259;DHT22;11798;51.528;7.240;2022-12-29T10:46:20;10.70;99.90
23259;DHT22;11798;51.528;7.240;2022-12-29T10:48:47;10.70;99.90
23259;DHT22;11798;51.528;7.240;2022-12-29T10:51:23;10.70;99.90
23259;DHT22;11798;51.528;7.240;2022-12-29T10:53:55;10.60;99.90
23259;DHT22;11798;51.528;7.240;2022-12-29T10:56:31;10.60;99.90
23259;DHT22;11798;51.528;7.240;2022-12-29T10:59:01;10.60;99.90
23259;DHT22;11798;51.528;7.240;2022-12-29T11:01:34;10.60;99.90
23259;DHT22;11798;51.528;7.240;2022-12-29T11:06:49;10.60;99.90
23259;DHT22;11798;51.528;7.240;2022-12-29T11:09:17;10.60;99.90
23259;DHT22;11798;51.528;7.240;2022-12-29T11:11:44;10.60;99.90
23259;DHT22;11798;51.528;7.240;2022-12-29T11:14:39;10.60;99.90
23259;DHT22;11798;51.528;7.240;2022-12-29T11:17:15;10.60;99.90
23259;DHT22;11798;51.528;7.240;2022-12-29T11:19:41;10.70;99.90
23259;DHT22;11798;51.528;7.240;2022-12-29T11:22:23;10.60;99.90
23259;DHT22;11798;51.528;7.240;2022-12-29T11:24:51;10.60;99.90
23259;DHT22;11798;51.528;7.240;2022-12-29T11:27:23;10.60;99.90
23259;DHT22;11798;51.528;7.240;2022-12-29T11:29:51;10.60;99.90
23259;DHT22;11798;51.528;7.240;2022-12-29T11:34:45;10.60;99.90
23259;DHT22;11798;51.528;7.240;2022-12-29T11:37:19;10.60;99.90
23259;DHT22;11798;51.528;7.240;2022-12-29T11:40:02;10.60;99.90
23259;DHT22;11798;51.528;7.240;2022-12-29T11:42:33;10.60;99.90
23259;DHT22;11798;51.528;7.240;2022-12-29T11:45:06;10.70;99.90
23259;DHT22;11798;51.528;7.240;2022-12-29T11:47:32;10.60;99.90
23259;DHT22;11798;51.528;7.240;2022-12-29T11:50:04;10.60;99.90
23259;DHT22;11798;51.528;7.240;2022-12-29T11:52:35;10.70;99.90
23259;DHT22;11798;51.528;7.240;2022-12-29T11:55:04;10.70;99.90
23259;DHT22;11798;51.528;7.240;2022-12-29T11:57:33;10.70;99.90
23259;DHT22;11798;51.528;7.240;2022-12-29T12:00:02;10.70;99.90
23259;DHT22;11798;51.528;7.240;2022-12-29T12:02:59;10.70;99.90
23259;DHT22;11798;51.528;7.240;2022-12-29T12:05:47;10.70;99.90
23259;DHT22;11798;51.528;7.240;2022-12-29T12:08:39;10.70;99.90
23259;DHT22;11798;51.528;7.240;2022-12-29T12:16:11;10.70;99.90
23259;DHT22;11798;51.528;7.240;2022-12-29T12:18:47;10.80;99.90
23259;DHT22;11798;51.528;7.240;2022-12-29T12:21:21;10.80;99.90
23259;DHT22;11798;51.528;7.240;2022-12-29T12:27:20;10.90;99.90
23259;DHT22;11798;51.528;7.240;2022-12-29T12:30:17;10.80;99.90
23259;DHT22;11798;51.528;7.240;2022-12-29T12:33:13;10.80;99.90
23259;DHT22;11798;51.528;7.240;2022-12-29T12:44:21;10.70;99.90
23259;DHT22;11798;51.528;7.240;2022-12-29T12:46:54;10.70;99.90
23259;DHT22;11798;51.528;7.240;2022-12-29T12:50:24;10.60;99.90
23259;DHT22;11798;51.528;7.240;2022-12-29T13:07:02;10.60;99.90
23259;DHT22;11798;51.528;7.240;2022-12-29T13:12:46;10.60;99.90
23259;DHT22;11798;51.528;7.240;2022-12-29T13:15:33;10.60;99.90
23259;DHT22;11798;51.528;7.240;2022-12-29T13:20:49;10.50;99.90
23259;DHT22;11798;51.528;7.240;2022-12-29T13:28:53;10.50;99.90
23259;DHT22;11798;51.528;7.240;2022-12-29T13:36:45;10.60;99.90
23259;DHT22;11798;51.528;7.240;2022-12-29T13:39:25;10.60;99.90
23259;DHT22;11798;51.528;7.240;2022-12-29T13:41:56;10.60;99.90
23259;DHT22;11798;51.528;7.240;2022-12-29T13:44:30;10.60;99.90
23259;DHT22;11798;51.528;7.240;2022-12-29T13:47:00;10.50;99.90
23259;DHT22;11798;51.528;7.240;2022-12-29T13:49:26;10.40;99.90
23259;DHT22;11798;51.528;7.240;2022-12-29T13:51:58;10.40;99.90
23259;DHT22;11798;51.528;7.240;2022-12-29T13:58:00;10.30;99.90
23259;DHT22;11798;51.528;7.240;2022-12-29T14:00:11;10.30;99.90
23259;DHT22;11798;51.528;7.240;2022-12-29T14:02:50;10.30;99.90
23259;DHT22;11798;51.528;7.240;2022-12-29T14:05:26;10.20;99.90
23259;DHT22;11798;51.528;7.240;2022-12-29T14:08:04;10.20;99.90
23259;DHT22;11798;51.528;7.240;2022-12-29T14:13:12;10.30;99.90
23259;DHT22;11798;51.528;7.240;2022-12-29T14:15:42;10.20;99.90
23259;DHT22;11798;51.528;7.240;2022-12-29T14:18:18;10.20;99.90
23259;DHT22;11798;51.528;7.240;2022-12-29T14:20:58;10.20;99.90
23259;DHT22;11798;51.528;7.240;2022-12-29T14:29:16;10.10;99.90
23259;DHT22;11798;51.528;7.240;2022-12-29T14:31:42;10.20;99.90
23259;DHT22;11798;51.528;7.240;2022-12-29T14:36:39;10.10;99.90
23259;DHT22;11798;51.528;7.240;2022-12-29T14:52:49;10.10;99.90
23259;DHT22;11798;51.528;7.240;2022-12-29T14:57:45;10.10;99.90
23259;DHT22;11798;51.528;7.240;2022-12-29T15:00:26;10.10;99.90
23259;DHT22;11798;51.528;7.240;2022-12-29T15:03:10;10.10;99.90
23259;DHT22;11798;51.528;7.240;2022-12-29T15:05:44;10.00;99.90
23259;DHT22;11798;51.528;7.240;2022-12-29T15:08:12;10.00;99.90
23259;DHT22;11798;51.528;7.240;2022-12-29T15:10:49;10.00;99.90
23259;DHT22;11798;51.528;7.240;2022-12-29T15:13:23;10.00;99.90
23259;DHT22;11798;51.528;7.240;2022-12-29T15:15:50;10.00;99.90
23259;DHT22;11798;51.528;7.240;2022-12-29T15:18:26;10.10;99.90
23259;DHT22;11798;51.528;7.240;2022-12-29T15:20:57;10.00;99.90
23259;DHT22;11798;51.528;7.240;2022-12-29T15:23:24;10.00;99.90
23259;DHT22;11798;51.528;7.240;2022-12-29T15:28:20;10.00;99.90
23259;DHT22;11798;51.528;7.240;2022-12-29T15:30:52;10.00;99.90
23259;DHT22;11798;51.528;7.240;2022-12-29T15:33:19;10.00;99.90
23259;DHT22;11798;51.528;7.240;2022-12-29T15:35:51;10.00;99.90
23259;DHT22;11798;51.528;7.240;2022-12-29T15:38:22;9.90;99.90
23259;DHT22;11798;51.528;7.240;2022-12-29T15:40:53;9.90;99.90
23259;DHT22;11798;51.528;7.240;2022-12-29T15:46:11;9.90;99.90
23259;DHT22;11798;51.528;7.240;2022-12-29T15:48:38;9.90;99.90
23259;DHT22;11798;51.528;7.240;2022-12-29T15:51:33;9.90;99.90
23259;DHT22;11798;51.528;7.240;2022-12-29T15:53:56;9.80;99.90
23259;DHT22;11798;51.528;7.240;2022-12-29T15:56:22;9.90;99.90
23259;DHT22;11798;51.528;7.240;2022-12-29T15:58:50;9.80;99.90
23259;DHT22;11798;51.528;7.240;2022-12-29T16:03:43;9.80;99.90
23259;DHT22;11798;51.528;7.240;2022-12-29T16:09:11;9.80;99.90
23259;DHT22;11798;51.528;7.240;2022-12-29T16:11:51;9.80;99.90
23259;DHT22;11798;51.528;7.240;2022-12-29T16:14:21;9.80;99.90
23259;DHT22;11798;51.528;7.240;2022-12-29T16:16:50;9.80;99.90
23259;DHT22;11798;51.528;7.240;2022-12-29T16:19:24;9.70;99.90
23259;DHT22;11798;51.528;7.240;2022-12-29T16:21:51;9.80;99.90
23259;DHT22;11798;51.528;7.240;2022-12-29T16:24:19;9.70;99.90
23259;DHT22;11798;51.528;7.240;2022-12-29T16:27:31;9.70;99.90
23259;DHT22;11798;51.528;7.240;2022-12-29T16:29:53;9.70;99.90
23259;DHT22;11798;51.528;7.240;2022-12-29T16:32:24;9.70;99.90
23259;DHT22;11798;51.528;7.240;2022-12-29T16:37:32;9.60;99.90
23259;DHT22;11798;51.528;7.240;2022-12-29T16:42:55;9.40;99.90
23259;DHT22;11798;51.528;7.240;2022-12-29T16:50:26;9.30;99.90
23259;DHT22;11798;51.528;7.240;2022-12-29T16:52:52;9.30;99.90
23259;DHT22;11798;51.528;7.240;2022-12-29T16:55:19;9.30;99.90
23259;DHT22;11798;51.528;7.240;2022-12-29T16:57:47;9.30;99.90
23259;DHT22;11798;51.528;7.240;2022-12-29T17:00:21;9.30;99.90
23259;DHT22;11798;51.528;7.240;2022-12-29T17:02:49;9.30;99.90
23259;DHT22;11798;51.528;7.240;2022-12-29T17:05:17;9.30;99.90
23259;DHT22;11798;51.528;7.240;2022-12-29T17:07:44;9.30;99.90
23259;DHT22;11798;51.528;7.240;2022-12-29T17:10:10;9.30;99.90
23259;DHT22;11798;51.528;7.240;2022-12-29T17:12:36;9.30;99.90
23259;DHT22;11798;51.528;7.240;2022-12-29T17:15:04;9.30;99.90
23259;DHT22;11798;51.528;7.240;2022-12-29T17:17:40;9.30;99.90
23259;DHT22;11798;51.528;7.240;2022-12-29T17:20:15;9.40;99.90
23259;DHT22;11798;51.528;7.240;2022-12-29T17:22:42;9.40;99.90
23259;DHT22;11798;51.528;7.240;2022-12-29T17:25:11;9.40;99.90
23259;DHT22;11798;51.528;7.240;2022-12-29T17:30:16;9.20;99.90
23259;DHT22;11798;51.528;7.240;2022-12-29T17:32:46;8.90;99.90
23259;DHT22;11798;51.528;7.240;2022-12-29T17:35:17;8.50;99.90
23259;DHT22;11798;51.528;7.240;2022-12-29T17:37:46;8.40;99.90
23259;DHT22;11798;51.528;7.240;2022-12-29T17:40:17;8.30;99.90
23259;DHT22;11798;51.528;7.240;2022-12-29T17:42:51;8.20;99.90
23259;DHT22;11798;51.528;7.240;2022-12-29T17:45:20;8.00;99.90
23259;DHT22;11798;51.528;7.240;2022-12-29T17:47:46;8.00;99.90
23259;DHT22;11798;51.528;7.240;2022-12-29T17:50:17;7.80;99.90
23259;DHT22;11798;51.528;7.240;2022-12-29T17:52:52;7.70;99.90
23259;DHT22;11798;51.528;7.240;2022-12-29T17:55:20;7.70;99.90
23259;DHT22;11798;51.528;7.240;2022-12-29T17:57:47;7.70;99.90
23259;DHT22;11798;51.528;7.240;2022-12-29T18:00:18;7.70;99.90
23259;DHT22;11798;51.528;7.240;2022-12-29T18:02:44;7.60;99.90
23259;DHT22;11798;51.528;7.240;2022-12-29T18:05:25;7.60;99.90
23259;DHT22;11798;51.528;7.240;2022-12-29T18:07:52;7.60;99.90
23259;DHT22;11798;51.528;7.240;2022-12-29T18:10:18;7.60;99.90
23259;DHT22;11798;51.528;7.240;2022-12-29T18:12:47;7.50;99.90
23259;DHT22;11798;51.528;7.240;2022-12-29T18:15:27;7.50;99.90
23259;DHT22;11798;51.528;7.240;2022-12-29T18:20:28;7.50;99.90
23259;DHT22;11798;51.528;7.240;2022-12-29T18:22:55;7.40;99.90
23259;DHT22;11798;51.528;7.240;2022-12-29T18:25:25;7.40;99.90
23259;DHT22;11798;51.528;7.240;2022-12-29T18:27:50;7.30;99.90
23259;DHT22;11798;51.528;7.240;2022-12-29T18:30:16;7.40;99.90
23259;DHT22;11798;51.528;7.240;2022-12-29T18:32:42;7.50;99.90
23259;DHT22;11798;51.528;7.240;2022-12-29T18:35:18;7.30;99.90
23259;DHT22;11798;51.528;7.240;2022-12-29T18:37:44;7.30;99.90
23259;DHT22;11798;51.528;7.240;2022-12-29T18:40:13;7.20;99.90
23259;DHT22;11798;51.528;7.240;2022-12-29T18:42:38;7.20;99.90